sensor_id;sensor_type;location;lat;lon;timestamp;P1;durP1;ratioP1;P2;durP2;ratioP2
18752;SDS011;9505;50.882;5.350;2023-05-17T00:01:43;44.58;;;8.65;;
18752;SDS011;9505;50.882;5.350;2023-05-17T00:04:08;39.40;;;8.20;;
18752;SDS011;9505;50.882;5.350;2023-05-17T00:06:34;45.67;;;9.18;;
18752;SDS011;9505;50.882;5.350;2023-05-17T00:09:00;43.13;;;8.82;;
18752;SDS011;9505;50.882;5.350;2023-05-17T00:11:26;49.17;;;9.18;;
18752;SDS011;9505;50.882;5.350;2023-05-17T00:13:52;53.13;;;10.52;;
18752;SDS011;9505;50.882;5.350;2023-05-17T00:16:18;40.78;;;8.25;;
18752;SDS011;9505;50.882;5.350;2023-05-17T00:18:43;39.05;;;8.27;;
18752;SDS011;9505;50.882;5.350;2023-05-17T00:21:09;45.97;;;9.52;;
18752;SDS011;9505;50.882;5.350;2023-05-17T00:23:35;51.75;;;9.05;;
18752;SDS011;9505;50.882;5.350;2023-05-17T00:26:00;41.25;;;8.88;;
18752;SDS011;9505;50.882;5.350;2023-05-17T00:28:26;50.15;;;9.43;;
18752;SDS011;9505;50.882;5.350;2023-05-17T00:30:52;43.83;;;9.50;;
18752;SDS011;9505;50.882;5.350;2023-05-17T00:33:17;41.10;;;9.73;;
18752;SDS011;9505;50.882;5.350;2023-05-17T00:35:43;39.10;;;8.73;;
18752;SDS011;9505;50.882;5.350;2023-05-17T00:38:08;41.63;;;9.35;;
18752;SDS011;9505;50.882;5.350;2023-05-17T00:40:34;49.33;;;10.95;;
18752;SDS011;9505;50.882;5.350;2023-05-17T00:43:00;42.78;;;9.43;;
18752;SDS011;9505;50.882;5.350;2023-05-17T00:45:25;50.65;;;9.10;;
18752;SDS011;9505;50.882;5.350;2023-05-17T00:47:51;42.65;;;9.23;;
18752;SDS011;9505;50.882;5.350;2023-05-17T00:50:17;41.15;;;9.48;;
18752;SDS011;9505;50.882;5.350;2023-05-17T00:52:42;43.17;;;10.48;;
18752;SDS011;9505;50.882;5.350;2023-05-17T00:55:08;42.25;;;9.90;;
18752;SDS011;9505;50.882;5.350;2023-05-17T00:57:34;39.75;;;9.35;;
18752;SDS011;9505;50.882;5.350;2023-05-17T01:00:00;50.58;;;10.73;;
18752;SDS011;9505;50.882;5.350;2023-05-17T01:02:26;47.90;;;10.52;;
18752;SDS011;9505;50.882;5.350;2023-05-17T01:04:52;38.30;;;9.63;;
18752;SDS011;9505;50.882;5.350;2023-05-17T01:07:18;41.08;;;9.93;;
18752;SDS011;9505;50.882;5.350;2023-05-17T01:09:43;43.17;;;9.68;;
18752;SDS011;9505;50.882;5.350;2023-05-17T01:12:14;47.88;;;10.43;;
18752;SDS011;9505;50.882;5.350;2023-05-17T01:15:07;39.10;;;10.15;;
18752;SDS011;9505;50.882;5.350;2023-05-17T01:17:58;42.40;;;10.90;;
18752;SDS011;9505;50.882;5.350;2023-05-17T01:20:41;51.00;;;12.07;;
18752;SDS011;9505;50.882;5.350;2023-05-17T01:26:06;52.25;;;12.77;;
18752;SDS011;9505;50.882;5.350;2023-05-17T01:28:39;51.58;;;11.63;;
18752;SDS011;9505;50.882;5.350;2023-05-17T01:31:07;52.22;;;11.10;;
18752;SDS011;9505;50.882;5.350;2023-05-17T01:33:35;53.40;;;11.63;;
18752;SDS011;9505;50.882;5.350;2023-05-17T01:36:01;45.80;;;11.35;;
18752;SDS011;9505;50.882;5.350;2023-05-17T01:38:27;47.60;;;11.43;;
18752;SDS011;9505;50.882;5.350;2023-05-17T01:41:07;47.03;;;11.73;;
18752;SDS011;9505;50.882;5.350;2023-05-17T01:46:25;54.38;;;12.00;;
18752;SDS011;9505;50.882;5.350;2023-05-17T01:51:25;43.38;;;11.18;;
18752;SDS011;9505;50.882;5.350;2023-05-17T01:53:56;52.28;;;12.10;;
18752;SDS011;9505;50.882;5.350;2023-05-17T01:56:27;62.42;;;13.00;;
18752;SDS011;9505;50.882;5.350;2023-05-17T01:58:58;50.08;;;13.73;;
18752;SDS011;9505;50.882;5.350;2023-05-17T02:01:26;50.05;;;12.02;;
18752;SDS011;9505;50.882;5.350;2023-05-17T02:03:56;56.08;;;13.23;;
18752;SDS011;9505;50.882;5.350;2023-05-17T02:06:22;50.30;;;12.27;;
18752;SDS011;9505;50.882;5.350;2023-05-17T02:08:48;49.33;;;12.80;;
18752;SDS011;9505;50.882;5.350;2023-05-17T02:11:13;55.53;;;13.85;;
18752;SDS011;9505;50.882;5.350;2023-05-17T02:13:39;52.17;;;13.98;;
18752;SDS011;9505;50.882;5.350;2023-05-17T02:16:05;63.25;;;15.10;;
18752;SDS011;9505;50.882;5.350;2023-05-17T02:18:31;57.30;;;14.50;;
18752;SDS011;9505;50.882;5.350;2023-05-17T02:20:59;59.08;;;13.93;;
18752;SDS011;9505;50.882;5.350;2023-05-17T02:23:25;54.28;;;14.27;;
18752;SDS011;9505;50.882;5.350;2023-05-17T02:25:50;74.65;;;15.70;;
18752;SDS011;9505;50.882;5.350;2023-05-17T02:28:19;60.83;;;15.60;;
18752;SDS011;9505;50.882;5.350;2023-05-17T02:30:45;49.88;;;13.65;;
18752;SDS011;9505;50.882;5.350;2023-05-17T02:33:10;58.40;;;14.23;;
18752;SDS011;9505;50.882;5.350;2023-05-17T02:35:38;62.28;;;15.98;;
18752;SDS011;9505;50.882;5.350;2023-05-17T02:38:04;64.78;;;15.25;;
18752;SDS011;9505;50.882;5.350;2023-05-17T02:40:30;65.13;;;15.13;;
18752;SDS011;9505;50.882;5.350;2023-05-17T02:42:55;69.38;;;14.75;;
18752;SDS011;9505;50.882;5.350;2023-05-17T02:45:21;55.92;;;14.70;;
18752;SDS011;9505;50.882;5.350;2023-05-17T02:47:48;72.32;;;16.75;;
18752;SDS011;9505;50.882;5.350;2023-05-17T02:50:14;57.22;;;16.25;;
18752;SDS011;9505;50.882;5.350;2023-05-17T02:52:39;61.75;;;16.17;;
18752;SDS011;9505;50.882;5.350;2023-05-17T02:55:05;57.47;;;15.13;;
18752;SDS011;9505;50.882;5.350;2023-05-17T02:57:31;57.70;;;15.60;;
18752;SDS011;9505;50.882;5.350;2023-05-17T02:59:58;61.53;;;15.20;;
18752;SDS011;9505;50.882;5.350;2023-05-17T03:02:23;62.08;;;14.43;;
18752;SDS011;9505;50.882;5.350;2023-05-17T03:04:49;52.85;;;13.77;;
18752;SDS011;9505;50.882;5.350;2023-05-17T03:07:15;55.17;;;14.13;;
18752;SDS011;9505;50.882;5.350;2023-05-17T03:09:40;59.15;;;15.88;;
18752;SDS011;9505;50.882;5.350;2023-05-17T03:12:07;53.88;;;14.48;;
18752;SDS011;9505;50.882;5.350;2023-05-17T03:14:33;57.33;;;14.07;;
18752;SDS011;9505;50.882;5.350;2023-05-17T03:16:58;57.92;;;15.73;;
18752;SDS011;9505;50.882;5.350;2023-05-17T03:19:24;54.00;;;14.35;;
18752;SDS011;9505;50.882;5.350;2023-05-17T03:21:49;60.42;;;15.27;;
18752;SDS011;9505;50.882;5.350;2023-05-17T03:24:15;55.90;;;14.90;;
18752;SDS011;9505;50.882;5.350;2023-05-17T03:26:41;60.47;;;15.27;;
18752;SDS011;9505;50.882;5.350;2023-05-17T03:29:06;55.80;;;13.77;;
18752;SDS011;9505;50.882;5.350;2023-05-17T03:31:32;55.78;;;13.73;;
18752;SDS011;9505;50.882;5.350;2023-05-17T03:33:58;60.72;;;14.65;;
18752;SDS011;9505;50.882;5.350;2023-05-17T03:36:25;57.88;;;14.77;;
18752;SDS011;9505;50.882;5.350;2023-05-17T03:38:51;47.83;;;13.65;;
18752;SDS011;9505;50.882;5.350;2023-05-17T03:41:16;66.93;;;14.77;;
18752;SDS011;9505;50.882;5.350;2023-05-17T03:43:43;66.85;;;14.20;;
18752;SDS011;9505;50.882;5.350;2023-05-17T03:46:09;57.88;;;14.93;;
18752;SDS011;9505;50.882;5.350;2023-05-17T03:48:35;55.75;;;15.02;;
18752;SDS011;9505;50.882;5.350;2023-05-17T03:51:01;61.20;;;15.43;;
18752;SDS011;9505;50.882;5.350;2023-05-17T03:53:27;56.65;;;15.13;;
18752;SDS011;9505;50.882;5.350;2023-05-17T03:55:52;54.70;;;15.13;;
18752;SDS011;9505;50.882;5.350;2023-05-17T03:58:18;56.45;;;14.55;;
18752;SDS011;9505;50.882;5.350;2023-05-17T04:00:43;56.13;;;14.60;;
18752;SDS011;9505;50.882;5.350;2023-05-17T04:03:09;64.88;;;14.65;;
18752;SDS011;9505;50.882;5.350;2023-05-17T04:05:39;56.30;;;15.13;;
18752;SDS011;9505;50.882;5.350;2023-05-17T04:08:05;56.88;;;15.18;;
18752;SDS011;9505;50.882;5.350;2023-05-17T04:10:32;61.60;;;16.60;;
18752;SDS011;9505;50.882;5.350;2023-05-17T04:12:57;60.25;;;16.02;;
18752;SDS011;9505;50.882;5.350;2023-05-17T04:15:23;62.28;;;16.58;;
18752;SDS011;9505;50.882;5.350;2023-05-17T04:17:49;56.97;;;15.93;;
18752;SDS011;9505;50.882;5.350;2023-05-17T04:20:14;56.40;;;15.38;;
18752;SDS011;9505;50.882;5.350;2023-05-17T04:22:40;65.25;;;16.88;;
18752;SDS011;9505;50.882;5.350;2023-05-17T04:25:06;55.97;;;15.73;;
18752;SDS011;9505;50.882;5.350;2023-05-17T04:27:32;57.78;;;17.08;;
18752;SDS011;9505;50.882;5.350;2023-05-17T04:29:57;53.67;;;16.20;;
18752;SDS011;9505;50.882;5.350;2023-05-17T04:32:23;60.95;;;17.13;;
18752;SDS011;9505;50.882;5.350;2023-05-17T04:34:49;63.25;;;16.95;;
18752;SDS011;9505;50.882;5.350;2023-05-17T04:37:16;68.03;;;18.65;;
18752;SDS011;9505;50.882;5.350;2023-05-17T04:39:41;69.22;;;18.15;;
18752;SDS011;9505;50.882;5.350;2023-05-17T04:42:07;74.32;;;20.77;;
18752;SDS011;9505;50.882;5.350;2023-05-17T04:44:33;72.53;;;18.35;;
18752;SDS011;9505;50.882;5.350;2023-05-17T04:46:59;80.45;;;21.05;;
18752;SDS011;9505;50.882;5.350;2023-05-17T04:49:25;78.80;;;20.80;;
18752;SDS011;9505;50.882;5.350;2023-05-17T04:51:51;65.28;;;18.75;;
18752;SDS011;9505;50.882;5.350;2023-05-17T04:54:17;69.97;;;20.67;;
18752;SDS011;9505;50.882;5.350;2023-05-17T04:56:43;85.10;;;21.58;;
18752;SDS011;9505;50.882;5.350;2023-05-17T04:59:08;76.93;;;21.17;;
18752;SDS011;9505;50.882;5.350;2023-05-17T05:01:35;88.40;;;22.15;;
18752;SDS011;9505;50.882;5.350;2023-05-17T05:04:01;79.82;;;22.77;;
18752;SDS011;9505;50.882;5.350;2023-05-17T05:06:31;85.38;;;22.77;;
18752;SDS011;9505;50.882;5.350;2023-05-17T05:08:57;95.30;;;22.98;;
18752;SDS011;9505;50.882;5.350;2023-05-17T05:11:24;80.00;;;23.42;;
18752;SDS011;9505;50.882;5.350;2023-05-17T05:13:50;76.80;;;21.58;;
18752;SDS011;9505;50.882;5.350;2023-05-17T05:16:15;94.50;;;24.73;;
18752;SDS011;9505;50.882;5.350;2023-05-17T05:18:41;89.00;;;23.90;;
18752;SDS011;9505;50.882;5.350;2023-05-17T05:21:06;87.45;;;23.70;;
18752;SDS011;9505;50.882;5.350;2023-05-17T05:23:32;81.18;;;24.20;;
18752;SDS011;9505;50.882;5.350;2023-05-17T05:25:58;87.13;;;24.33;;
18752;SDS011;9505;50.882;5.350;2023-05-17T05:28:23;93.90;;;23.80;;
18752;SDS011;9505;50.882;5.350;2023-05-17T05:30:49;91.78;;;23.67;;
18752;SDS011;9505;50.882;5.350;2023-05-17T05:33:15;94.53;;;24.45;;
18752;SDS011;9505;50.882;5.350;2023-05-17T05:35:40;93.90;;;24.65;;
18752;SDS011;9505;50.882;5.350;2023-05-17T05:38:06;81.88;;;24.63;;
18752;SDS011;9505;50.882;5.350;2023-05-17T05:40:32;92.45;;;24.33;;
18752;SDS011;9505;50.882;5.350;2023-05-17T05:42:57;87.20;;;23.10;;
18752;SDS011;9505;50.882;5.350;2023-05-17T05:45:23;104.30;;;25.67;;
18752;SDS011;9505;50.882;5.350;2023-05-17T05:47:48;91.82;;;25.75;;
18752;SDS011;9505;50.882;5.350;2023-05-17T05:50:14;86.70;;;25.15;;
18752;SDS011;9505;50.882;5.350;2023-05-17T05:52:40;109.68;;;28.38;;
18752;SDS011;9505;50.882;5.350;2023-05-17T05:55:06;104.07;;;29.52;;
18752;SDS011;9505;50.882;5.350;2023-05-17T05:57:31;106.65;;;28.05;;
18752;SDS011;9505;50.882;5.350;2023-05-17T05:59:57;105.80;;;27.67;;
18752;SDS011;9505;50.882;5.350;2023-05-17T06:02:23;96.05;;;28.95;;
18752;SDS011;9505;50.882;5.350;2023-05-17T06:04:48;93.40;;;26.92;;
18752;SDS011;9505;50.882;5.350;2023-05-17T06:07:14;104.00;;;26.25;;
18752;SDS011;9505;50.882;5.350;2023-05-17T06:09:40;92.95;;;27.80;;
18752;SDS011;9505;50.882;5.350;2023-05-17T06:12:06;89.32;;;26.40;;
18752;SDS011;9505;50.882;5.350;2023-05-17T06:14:32;70.38;;;24.20;;
18752;SDS011;9505;50.882;5.350;2023-05-17T06:16:57;84.53;;;23.25;;
18752;SDS011;9505;50.882;5.350;2023-05-17T06:19:23;71.82;;;22.25;;
18752;SDS011;9505;50.882;5.350;2023-05-17T06:21:49;76.18;;;21.13;;
18752;SDS011;9505;50.882;5.350;2023-05-17T06:24:14;85.18;;;21.88;;
18752;SDS011;9505;50.882;5.350;2023-05-17T06:26:41;67.53;;;20.15;;
18752;SDS011;9505;50.882;5.350;2023-05-17T06:29:08;53.40;;;17.83;;
18752;SDS011;9505;50.882;5.350;2023-05-17T06:31:33;59.90;;;17.10;;
18752;SDS011;9505;50.882;5.350;2023-05-17T06:33:59;60.25;;;14.10;;
18752;SDS011;9505;50.882;5.350;2023-05-17T06:36:25;47.78;;;12.05;;
18752;SDS011;9505;50.882;5.350;2023-05-17T06:38:51;43.88;;;9.60;;
18752;SDS011;9505;50.882;5.350;2023-05-17T06:41:16;44.65;;;9.60;;
18752;SDS011;9505;50.882;5.350;2023-05-17T06:43:42;40.63;;;8.52;;
18752;SDS011;9505;50.882;5.350;2023-05-17T06:46:07;35.58;;;8.25;;
18752;SDS011;9505;50.882;5.350;2023-05-17T06:48:33;39.33;;;9.32;;
18752;SDS011;9505;50.882;5.350;2023-05-17T06:50:59;44.08;;;9.20;;
18752;SDS011;9505;50.882;5.350;2023-05-17T06:53:24;42.38;;;8.68;;
18752;SDS011;9505;50.882;5.350;2023-05-17T06:55:51;39.47;;;9.73;;
18752;SDS011;9505;50.882;5.350;2023-05-17T06:58:16;38.40;;;9.05;;
18752;SDS011;9505;50.882;5.350;2023-05-17T07:00:42;44.00;;;8.98;;
18752;SDS011;9505;50.882;5.350;2023-05-17T07:03:08;49.55;;;8.77;;
18752;SDS011;9505;50.882;5.350;2023-05-17T07:05:34;57.67;;;9.45;;
18752;SDS011;9505;50.882;5.350;2023-05-17T07:08:00;46.65;;;9.05;;
18752;SDS011;9505;50.882;5.350;2023-05-17T07:10:26;46.25;;;9.40;;
18752;SDS011;9505;50.882;5.350;2023-05-17T07:12:51;45.33;;;8.07;;
18752;SDS011;9505;50.882;5.350;2023-05-17T07:15:17;41.72;;;9.25;;
18752;SDS011;9505;50.882;5.350;2023-05-17T07:17:43;39.40;;;8.43;;
18752;SDS011;9505;50.882;5.350;2023-05-17T07:20:09;40.10;;;8.68;;
18752;SDS011;9505;50.882;5.350;2023-05-17T07:22:35;39.40;;;8.43;;
18752;SDS011;9505;50.882;5.350;2023-05-17T07:25:01;49.47;;;9.38;;
18752;SDS011;9505;50.882;5.350;2023-05-17T07:27:28;56.38;;;10.10;;
18752;SDS011;9505;50.882;5.350;2023-05-17T07:29:54;42.40;;;8.57;;
18752;SDS011;9505;50.882;5.350;2023-05-17T07:32:20;46.45;;;8.85;;
18752;SDS011;9505;50.882;5.350;2023-05-17T07:34:45;65.60;;;10.30;;
18752;SDS011;9505;50.882;5.350;2023-05-17T07:37:11;47.90;;;8.60;;
18752;SDS011;9505;50.882;5.350;2023-05-17T07:39:37;53.47;;;9.15;;
18752;SDS011;9505;50.882;5.350;2023-05-17T07:42:02;46.97;;;7.95;;
18752;SDS011;9505;50.882;5.350;2023-05-17T07:44:28;40.67;;;7.60;;
18752;SDS011;9505;50.882;5.350;2023-05-17T07:46:54;50.83;;;8.40;;
18752;SDS011;9505;50.882;5.350;2023-05-17T07:49:21;34.03;;;6.63;;
18752;SDS011;9505;50.882;5.350;2023-05-17T07:51:47;49.50;;;9.15;;
18752;SDS011;9505;50.882;5.350;2023-05-17T07:54:22;43.40;;;7.00;;
18752;SDS011;9505;50.882;5.350;2023-05-17T07:56:51;47.42;;;6.82;;
18752;SDS011;9505;50.882;5.350;2023-05-17T07:59:19;37.35;;;6.18;;
18752;SDS011;9505;50.882;5.350;2023-05-17T08:01:45;50.38;;;6.85;;
18752;SDS011;9505;50.882;5.350;2023-05-17T08:04:11;39.50;;;6.18;;
18752;SDS011;9505;50.882;5.350;2023-05-17T08:06:38;42.53;;;6.20;;
18752;SDS011;9505;50.882;5.350;2023-05-17T08:09:05;42.05;;;5.20;;
18752;SDS011;9505;50.882;5.350;2023-05-17T08:11:30;38.05;;;5.03;;
18752;SDS011;9505;50.882;5.350;2023-05-17T08:13:58;41.05;;;5.43;;
18752;SDS011;9505;50.882;5.350;2023-05-17T08:16:24;42.90;;;5.88;;
18752;SDS011;9505;50.882;5.350;2023-05-17T08:18:50;33.13;;;4.85;;
18752;SDS011;9505;50.882;5.350;2023-05-17T08:21:16;31.30;;;4.68;;
18752;SDS011;9505;50.882;5.350;2023-05-17T08:23:42;38.22;;;5.05;;
18752;SDS011;9505;50.882;5.350;2023-05-17T08:26:08;37.63;;;5.18;;
18752;SDS011;9505;50.882;5.350;2023-05-17T08:28:33;63.40;;;7.03;;
18752;SDS011;9505;50.882;5.350;2023-05-17T08:30:59;36.78;;;4.97;;
18752;SDS011;9505;50.882;5.350;2023-05-17T08:33:25;33.00;;;4.60;;
18752;SDS011;9505;50.882;5.350;2023-05-17T08:35:52;30.20;;;4.28;;
18752;SDS011;9505;50.882;5.350;2023-05-17T08:38:19;39.00;;;4.72;;
18752;SDS011;9505;50.882;5.350;2023-05-17T08:40:52;39.03;;;4.47;;
18752;SDS011;9505;50.882;5.350;2023-05-17T08:43:19;36.55;;;4.50;;
18752;SDS011;9505;50.882;5.350;2023-05-17T08:45:46;34.88;;;4.40;;
18752;SDS011;9505;50.882;5.350;2023-05-17T08:48:13;28.65;;;3.83;;
18752;SDS011;9505;50.882;5.350;2023-05-17T08:50:41;46.10;;;5.07;;
18752;SDS011;9505;50.882;5.350;2023-05-17T08:53:10;38.28;;;4.50;;
18752;SDS011;9505;50.882;5.350;2023-05-17T08:55:37;45.05;;;5.35;;
18752;SDS011;9505;50.882;5.350;2023-05-17T08:58:05;40.67;;;4.32;;
18752;SDS011;9505;50.882;5.350;2023-05-17T09:00:31;49.35;;;5.63;;
18752;SDS011;9505;50.882;5.350;2023-05-17T09:02:58;32.20;;;4.15;;
18752;SDS011;9505;50.882;5.350;2023-05-17T09:05:24;41.63;;;5.18;;
18752;SDS011;9505;50.882;5.350;2023-05-17T09:07:50;32.85;;;3.67;;
18752;SDS011;9505;50.882;5.350;2023-05-17T09:10:18;35.40;;;4.05;;
18752;SDS011;9505;50.882;5.350;2023-05-17T09:12:44;35.72;;;4.47;;
18752;SDS011;9505;50.882;5.350;2023-05-17T09:15:11;31.85;;;4.03;;
18752;SDS011;9505;50.882;5.350;2023-05-17T09:17:41;49.85;;;5.53;;
18752;SDS011;9505;50.882;5.350;2023-05-17T09:20:08;39.40;;;4.28;;
18752;SDS011;9505;50.882;5.350;2023-05-17T09:22:34;53.20;;;6.35;;
18752;SDS011;9505;50.882;5.350;2023-05-17T09:25:01;34.78;;;4.07;;
18752;SDS011;9505;50.882;5.350;2023-05-17T09:27:29;36.17;;;4.40;;
18752;SDS011;9505;50.882;5.350;2023-05-17T09:29:56;34.85;;;4.55;;
18752;SDS011;9505;50.882;5.350;2023-05-17T09:32:22;53.42;;;5.38;;
18752;SDS011;9505;50.882;5.350;2023-05-17T09:34:49;46.67;;;5.10;;
18752;SDS011;9505;50.882;5.350;2023-05-17T09:37:18;34.70;;;4.00;;
18752;SDS011;9505;50.882;5.350;2023-05-17T09:39:45;35.33;;;4.07;;
18752;SDS011;9505;50.882;5.350;2023-05-17T09:42:12;41.50;;;4.97;;
18752;SDS011;9505;50.882;5.350;2023-05-17T09:44:48;47.20;;;5.28;;
18752;SDS011;9505;50.882;5.350;2023-05-17T09:47:20;35.53;;;4.07;;
18752;SDS011;9505;50.882;5.350;2023-05-17T09:49:47;38.85;;;4.40;;
18752;SDS011;9505;50.882;5.350;2023-05-17T09:52:16;52.45;;;5.28;;
18752;SDS011;9505;50.882;5.350;2023-05-17T09:54:50;42.03;;;4.75;;
18752;SDS011;9505;50.882;5.350;2023-05-17T09:57:16;37.03;;;4.13;;
18752;SDS011;9505;50.882;5.350;2023-05-17T09:59:42;35.63;;;4.15;;
18752;SDS011;9505;50.882;5.350;2023-05-17T10:02:11;36.38;;;3.90;;
18752;SDS011;9505;50.882;5.350;2023-05-17T10:04:45;48.58;;;5.30;;
18752;SDS011;9505;50.882;5.350;2023-05-17T10:07:14;36.17;;;3.78;;
18752;SDS011;9505;50.882;5.350;2023-05-17T10:09:44;28.17;;;3.65;;
18752;SDS011;9505;50.882;5.350;2023-05-17T10:12:17;32.30;;;3.78;;
18752;SDS011;9505;50.882;5.350;2023-05-17T10:14:46;32.63;;;3.70;;
18752;SDS011;9505;50.882;5.350;2023-05-17T10:17:12;50.20;;;5.20;;
18752;SDS011;9505;50.882;5.350;2023-05-17T10:19:39;38.60;;;4.55;;
18752;SDS011;9505;50.882;5.350;2023-05-17T10:22:05;26.55;;;3.85;;
18752;SDS011;9505;50.882;5.350;2023-05-17T10:24:33;31.63;;;3.95;;
18752;SDS011;9505;50.882;5.350;2023-05-17T10:27:01;46.85;;;4.60;;
18752;SDS011;9505;50.882;5.350;2023-05-17T10:29:28;34.58;;;4.05;;
18752;SDS011;9505;50.882;5.350;2023-05-17T10:31:55;40.80;;;5.00;;
18752;SDS011;9505;50.882;5.350;2023-05-17T10:34:22;35.15;;;4.47;;
18752;SDS011;9505;50.882;5.350;2023-05-17T10:36:51;36.53;;;4.53;;
18752;SDS011;9505;50.882;5.350;2023-05-17T10:39:18;34.28;;;4.15;;
18752;SDS011;9505;50.882;5.350;2023-05-17T10:41:46;39.50;;;4.72;;
18752;SDS011;9505;50.882;5.350;2023-05-17T10:44:16;38.42;;;4.68;;
18752;SDS011;9505;50.882;5.350;2023-05-17T10:46:54;45.00;;;5.85;;
18752;SDS011;9505;50.882;5.350;2023-05-17T10:49:24;32.95;;;4.07;;
18752;SDS011;9505;50.882;5.350;2023-05-17T10:51:51;37.65;;;4.50;;
18752;SDS011;9505;50.882;5.350;2023-05-17T10:54:17;39.90;;;4.72;;
18752;SDS011;9505;50.882;5.350;2023-05-17T10:56:52;45.28;;;5.50;;
18752;SDS011;9505;50.882;5.350;2023-05-17T10:59:22;30.40;;;3.17;;
18752;SDS011;9505;50.882;5.350;2023-05-17T11:04:23;36.00;;;4.43;;
18752;SDS011;9505;50.882;5.350;2023-05-17T11:07:30;41.33;;;5.57;;
18752;SDS011;9505;50.882;5.350;2023-05-17T11:12:38;34.22;;;4.28;;
18752;SDS011;9505;50.882;5.350;2023-05-17T11:15:09;112.47;;;11.48;;
18752;SDS011;9505;50.882;5.350;2023-05-17T11:22:43;43.72;;;4.97;;
18752;SDS011;9505;50.882;5.350;2023-05-17T11:25:19;78.13;;;7.93;;
18752;SDS011;9505;50.882;5.350;2023-05-17T11:27:46;31.92;;;3.80;;
18752;SDS011;9505;50.882;5.350;2023-05-17T11:33:02;42.03;;;4.72;;
18752;SDS011;9505;50.882;5.350;2023-05-17T11:35:31;62.45;;;6.85;;
18752;SDS011;9505;50.882;5.350;2023-05-17T11:38:22;37.72;;;4.70;;
18752;SDS011;9505;50.882;5.350;2023-05-17T11:40:55;75.22;;;8.35;;
18752;SDS011;9505;50.882;5.350;2023-05-17T11:43:22;76.95;;;7.82;;
18752;SDS011;9505;50.882;5.350;2023-05-17T11:48:15;43.53;;;5.03;;
18752;SDS011;9505;50.882;5.350;2023-05-17T11:50:43;64.07;;;7.68;;
18752;SDS011;9505;50.882;5.350;2023-05-17T11:53:09;52.95;;;6.10;;
18752;SDS011;9505;50.882;5.350;2023-05-17T11:55:37;89.97;;;9.48;;
18752;SDS011;9505;50.882;5.350;2023-05-17T11:58:05;59.90;;;6.47;;
18752;SDS011;9505;50.882;5.350;2023-05-17T12:00:32;52.15;;;5.63;;
18752;SDS011;9505;50.882;5.350;2023-05-17T12:03:13;42.38;;;5.05;;
18752;SDS011;9505;50.882;5.350;2023-05-17T12:05:50;87.78;;;9.02;;
18752;SDS011;9505;50.882;5.350;2023-05-17T12:08:26;101.57;;;10.50;;
18752;SDS011;9505;50.882;5.350;2023-05-17T12:10:52;80.45;;;8.35;;
18752;SDS011;9505;50.882;5.350;2023-05-17T12:13:18;54.47;;;5.60;;
18752;SDS011;9505;50.882;5.350;2023-05-17T12:15:47;33.15;;;4.10;;
18752;SDS011;9505;50.882;5.350;2023-05-17T12:18:18;26.77;;;3.40;;
18752;SDS011;9505;50.882;5.350;2023-05-17T12:21:06;52.05;;;5.70;;
18752;SDS011;9505;50.882;5.350;2023-05-17T12:23:32;51.45;;;5.95;;
18752;SDS011;9505;50.882;5.350;2023-05-17T12:28:35;45.60;;;5.07;;
18752;SDS011;9505;50.882;5.350;2023-05-17T12:31:03;41.63;;;4.85;;
18752;SDS011;9505;50.882;5.350;2023-05-17T12:33:32;66.35;;;6.78;;
18752;SDS011;9505;50.882;5.350;2023-05-17T12:36:00;76.28;;;8.25;;
18752;SDS011;9505;50.882;5.350;2023-05-17T12:38:29;77.20;;;8.30;;
18752;SDS011;9505;50.882;5.350;2023-05-17T12:40:59;64.97;;;6.95;;
18752;SDS011;9505;50.882;5.350;2023-05-17T12:43:26;48.58;;;5.75;;
18752;SDS011;9505;50.882;5.350;2023-05-17T12:45:53;37.70;;;4.30;;
18752;SDS011;9505;50.882;5.350;2023-05-17T12:48:26;37.40;;;4.53;;
18752;SDS011;9505;50.882;5.350;2023-05-17T12:50:51;74.35;;;7.72;;
18752;SDS011;9505;50.882;5.350;2023-05-17T12:53:19;56.45;;;6.38;;
18752;SDS011;9505;50.882;5.350;2023-05-17T12:55:47;46.75;;;5.75;;
18752;SDS011;9505;50.882;5.350;2023-05-17T12:58:13;31.88;;;3.67;;
18752;SDS011;9505;50.882;5.350;2023-05-17T13:00:39;56.85;;;6.13;;
18752;SDS011;9505;50.882;5.350;2023-05-17T13:03:08;79.13;;;8.52;;
18752;SDS011;9505;50.882;5.350;2023-05-17T13:05:34;67.97;;;7.63;;
18752;SDS011;9505;50.882;5.350;2023-05-17T13:11:31;35.42;;;4.03;;
18752;SDS011;9505;50.882;5.350;2023-05-17T13:13:50;79.72;;;7.72;;
18752;SDS011;9505;50.882;5.350;2023-05-17T13:16:16;61.72;;;6.57;;
18752;SDS011;9505;50.882;5.350;2023-05-17T13:18:48;38.53;;;4.70;;
18752;SDS011;9505;50.882;5.350;2023-05-17T13:21:16;37.85;;;4.50;;
18752;SDS011;9505;50.882;5.350;2023-05-17T13:23:44;52.05;;;5.68;;
18752;SDS011;9505;50.882;5.350;2023-05-17T13:26:11;55.65;;;6.53;;
18752;SDS011;9505;50.882;5.350;2023-05-17T13:28:37;75.20;;;7.72;;
18752;SDS011;9505;50.882;5.350;2023-05-17T13:31:04;41.15;;;4.65;;
18752;SDS011;9505;50.882;5.350;2023-05-17T13:33:29;39.08;;;4.60;;
18752;SDS011;9505;50.882;5.350;2023-05-17T13:35:55;56.92;;;6.38;;
18752;SDS011;9505;50.882;5.350;2023-05-17T13:38:21;68.75;;;7.63;;
18752;SDS011;9505;50.882;5.350;2023-05-17T13:40:47;32.88;;;4.38;;
18752;SDS011;9505;50.882;5.350;2023-05-17T13:43:12;30.25;;;3.42;;
18752;SDS011;9505;50.882;5.350;2023-05-17T13:45:39;65.03;;;6.93;;
18752;SDS011;9505;50.882;5.350;2023-05-17T13:48:04;58.80;;;6.22;;
18752;SDS011;9505;50.882;5.350;2023-05-17T13:50:30;21.80;;;2.80;;
18752;SDS011;9505;50.882;5.350;2023-05-17T13:52:56;17.70;;;2.58;;
18752;SDS011;9505;50.882;5.350;2023-05-17T13:55:22;39.40;;;4.60;;
18752;SDS011;9505;50.882;5.350;2023-05-17T13:57:48;39.40;;;4.50;;
18752;SDS011;9505;50.882;5.350;2023-05-17T14:00:14;24.63;;;2.45;;
18752;SDS011;9505;50.882;5.350;2023-05-17T14:02:40;17.40;;;2.38;;
18752;SDS011;9505;50.882;5.350;2023-05-17T14:05:06;16.77;;;2.05;;
18752;SDS011;9505;50.882;5.350;2023-05-17T14:07:33;17.95;;;2.45;;
18752;SDS011;9505;50.882;5.350;2023-05-17T14:09:59;27.33;;;3.88;;
18752;SDS011;9505;50.882;5.350;2023-05-17T14:12:26;16.60;;;2.15;;
18752;SDS011;9505;50.882;5.350;2023-05-17T14:14:52;15.38;;;2.08;;
18752;SDS011;9505;50.882;5.350;2023-05-17T14:17:17;22.98;;;3.05;;
18752;SDS011;9505;50.882;5.350;2023-05-17T14:19:43;17.73;;;2.72;;
18752;SDS011;9505;50.882;5.350;2023-05-17T14:22:08;22.20;;;2.72;;
18752;SDS011;9505;50.882;5.350;2023-05-17T14:24:34;19.83;;;2.40;;
18752;SDS011;9505;50.882;5.350;2023-05-17T14:27:00;22.30;;;2.83;;
18752;SDS011;9505;50.882;5.350;2023-05-17T14:29:26;17.08;;;2.35;;
18752;SDS011;9505;50.882;5.350;2023-05-17T14:31:54;16.98;;;2.28;;
18752;SDS011;9505;50.882;5.350;2023-05-17T14:34:19;16.00;;;2.03;;
18752;SDS011;9505;50.882;5.350;2023-05-17T14:36:45;12.63;;;2.00;;
18752;SDS011;9505;50.882;5.350;2023-05-17T14:39:11;19.35;;;2.67;;
18752;SDS011;9505;50.882;5.350;2023-05-17T14:41:36;14.40;;;2.33;;
18752;SDS011;9505;50.882;5.350;2023-05-17T14:44:03;18.70;;;2.63;;
18752;SDS011;9505;50.882;5.350;2023-05-17T14:46:29;19.02;;;2.45;;
18752;SDS011;9505;50.882;5.350;2023-05-17T14:48:55;16.23;;;2.13;;
18752;SDS011;9505;50.882;5.350;2023-05-17T14:51:20;22.75;;;2.97;;
18752;SDS011;9505;50.882;5.350;2023-05-17T14:53:46;14.88;;;2.08;;
18752;SDS011;9505;50.882;5.350;2023-05-17T14:56:12;23.75;;;2.85;;
18752;SDS011;9505;50.882;5.350;2023-05-17T14:58:39;17.15;;;2.40;;
18752;SDS011;9505;50.882;5.350;2023-05-17T15:01:06;23.23;;;3.05;;
18752;SDS011;9505;50.882;5.350;2023-05-17T15:03:32;6.30;;;1.58;;
18752;SDS011;9505;50.882;5.350;2023-05-17T15:05:58;15.27;;;2.67;;
18752;SDS011;9505;50.882;5.350;2023-05-17T15:08:25;17.30;;;2.28;;
18752;SDS011;9505;50.882;5.350;2023-05-17T15:10:51;13.80;;;1.98;;
18752;SDS011;9505;50.882;5.350;2023-05-17T15:13:18;17.85;;;2.10;;